Anderson, Alaska
Current Conditions -  °F | °C
As of 1:53 AM on Thursday 23 Oct 2014 (Local Time) from PANN Reporting Station
Overcast Overcast  
Wind Chill: 18°   Ceiling: 3800
Heat Index: 25°   Visibility: 10mi
Dew Point: 16°   Wind: 6mph
Humidity: 69%   Direction: 310°NW
Pressure: 29.75"   Gusts: NA
Location:  64.34°N, 149.19°W
Report Text: PANN 230953Z AUTO 31005KT 10SM OVC038 M04/M09 A2975 RMK AO2 SLP086 T10391089 TSNO
Loading
Personal Weather Stations






























Interactive Weather Map
Tropical Storm Tracking
New forecast layout! Learn more

10-Day Weather Forecast

Advertisements
Track Severe Weather on mobile